Time;durP1;ratioP1;P1;durP2;ratioP2;P2;SDS_P1;SDS_P2;PMS_P1;PMS_P2;Temp;Humidity;BMP_temperature;BMP_pressure;BME280_temperature;BME280_humidity;BME280_pressure;Samples;Min_cycle;Max_cycle;Signal;HPM_P1;HPM_P2
2023/08/14 00:01:14;;;;;;;12.45;5.72;;;;;;;;;;5006221;28;20050;-83
2023/08/14 00:03:48;;;;;;;11.75;4.75;;;;;;;;;;5007741;28;20157;-83
2023/08/14 00:06:21;;;;;;;11.63;4.90;;;;;;;;;;5007336;28;20061;-83
2023/08/14 00:08:53;;;;;;;9.77;4.18;;;;;;;;;;5007461;28;20045;-83
2023/08/14 00:11:23;;;;;;;14.02;4.57;;;;;;;;;;5007002;28;20038;-83
2023/08/14 00:13:55;;;;;;;14.00;3.70;;;;;;;;;;5008880;28;20057;-83
2023/08/14 00:16:27;;;;;;;9.57;4.20;;;;;;;;;;5006222;28;20057;-83
2023/08/14 00:19:01;;;;;;;7.70;3.22;;;;;;;;;;5010881;28;20050;-83
2023/08/14 00:21:32;;;;;;;7.65;3.40;;;;;;;;;;5009411;28;20037;-84
2023/08/14 00:24:06;;;;;;;6.72;3.20;;;;;;;;;;5008911;28;20080;-83
2023/08/14 00:26:43;;;;;;;7.25;2.90;;;;;;;;;;5010189;28;20046;-83
2023/08/14 00:29:17;;;;;;;7.40;3.60;;;;;;;;;;5010904;28;20085;-83
2023/08/14 00:31:48;;;;;;;13.27;3.17;;;;;;;;;;5010996;28;20053;-83
2023/08/14 00:34:18;;;;;;;7.57;3.38;;;;;;;;;;5010351;28;20049;-83
2023/08/14 00:36:48;;;;;;;7.68;3.38;;;;;;;;;;5008455;28;20058;-83
2023/08/14 00:39:20;;;;;;;8.75;3.42;;;;;;;;;;5010397;28;20496;-81
2023/08/14 00:41:52;;;;;;;8.65;3.50;;;;;;;;;;5010524;28;20053;-83
2023/08/14 00:44:25;;;;;;;8.48;3.40;;;;;;;;;;5010005;28;20049;-82
2023/08/14 00:46:58;;;;;;;9.52;3.92;;;;;;;;;;4995018;28;20053;-83
2023/08/14 00:49:32;;;;;;;6.78;3.05;;;;;;;;;;4994241;28;20360;-83
2023/08/14 00:52:03;;;;;;;6.90;3.50;;;;;;;;;;5009030;28;20045;-83
2023/08/14 00:54:33;;;;;;;8.13;3.42;;;;;;;;;;5008046;28;20065;-84
2023/08/14 00:57:07;;;;;;;6.15;3.13;;;;;;;;;;5010015;28;20053;-84
2023/08/14 00:59:39;;;;;;;8.40;3.05;;;;;;;;;;5009670;28;20049;-83
2023/08/14 01:02:10;;;;;;;7.35;2.78;;;;;;;;;;4994471;28;20050;-84
2023/08/14 01:04:42;;;;;;;8.43;3.00;;;;;;;;;;5010559;28;20050;-84
2023/08/14 01:07:14;;;;;;;8.93;2.97;;;;;;;;;;4995108;28;20057;-84
2023/08/14 01:09:49;;;;;;;7.45;3.20;;;;;;;;;;5008559;28;20049;-84
2023/08/14 01:12:25;;;;;;;5.43;2.80;;;;;;;;;;5008793;28;20403;-83
2023/08/14 01:15:04;;;;;;;7.88;2.85;;;;;;;;;;5010307;28;20046;-84
2023/08/14 01:17:38;;;;;;;8.85;3.42;;;;;;;;;;5008969;28;20496;-84
2023/08/14 01:20:15;;;;;;;11.32;3.63;;;;;;;;;;5010121;28;20052;-84
2023/08/14 01:23:27;;;;;;;7.15;2.80;;;;;;;;;;5009949;28;20388;-83
2023/08/14 01:25:59;;;;;;;10.30;3.05;;;;;;;;;;5010576;28;20050;-83
2023/08/14 01:28:33;;;;;;;9.10;3.20;;;;;;;;;;5008093;28;20069;-84
2023/08/14 01:31:10;;;;;;;9.98;3.35;;;;;;;;;;5009874;28;20045;-83
2023/08/14 01:33:41;;;;;;;6.00;3.22;;;;;;;;;;5009847;28;20053;-83
2023/08/14 01:36:35;;;;;;;8.63;3.40;;;;;;;;;;5010256;28;20061;-83
2023/08/14 01:39:11;;;;;;;6.55;3.20;;;;;;;;;;4993410;28;20050;-83
2023/08/14 01:42:15;;;;;;;7.35;3.22;;;;;;;;;;4992650;28;20050;-84
2023/08/14 01:44:56;;;;;;;10.50;3.13;;;;;;;;;;5008423;28;20050;-83
2023/08/14 01:47:29;;;;;;;6.78;3.05;;;;;;;;;;5009462;28;20046;-83
2023/08/14 01:50:03;;;;;;;8.43;3.70;;;;;;;;;;4991784;28;20058;-83
2023/08/14 01:52:35;;;;;;;7.32;3.25;;;;;;;;;;5009569;28;20050;-83
2023/08/14 01:55:07;;;;;;;8.50;3.15;;;;;;;;;;5009389;28;20046;-81
2023/08/14 01:57:38;;;;;;;8.43;4.05;;;;;;;;;;5009414;28;20534;-82
2023/08/14 02:00:10;;;;;;;7.93;3.50;;;;;;;;;;5009459;28;20049;-82
2023/08/14 02:02:40;;;;;;;9.70;3.70;;;;;;;;;;5009575;28;20396;-82
2023/08/14 02:05:11;;;;;;;7.63;3.63;;;;;;;;;;5009213;28;20060;-82
2023/08/14 02:07:42;;;;;;;8.75;3.30;;;;;;;;;;4994014;28;20058;-82
2023/08/14 02:10:16;;;;;;;10.20;3.35;;;;;;;;;;5007999;28;20416;-83
2023/08/14 02:12:48;;;;;;;6.82;3.15;;;;;;;;;;4993263;28;20058;-82
2023/08/14 02:15:22;;;;;;;6.30;3.47;;;;;;;;;;4992054;28;20054;-82
2023/08/14 02:17:55;;;;;;;6.88;3.00;;;;;;;;;;5009328;28;20049;-82
2023/08/14 02:20:27;;;;;;;8.15;3.20;;;;;;;;;;5007706;28;20052;-81
2023/08/14 02:22:59;;;;;;;8.30;3.28;;;;;;;;;;5007846;28;20042;-82
2023/08/14 02:25:32;;;;;;;6.28;2.75;;;;;;;;;;4991653;28;20054;-82
2023/08/14 02:28:03;;;;;;;8.02;3.10;;;;;;;;;;4993729;28;20050;-82
2023/08/14 02:30:37;;;;;;;8.38;3.33;;;;;;;;;;5009022;28;20054;-82
2023/08/14 02:33:10;;;;;;;7.22;2.90;;;;;;;;;;5007871;28;20053;-82
2023/08/14 02:35:41;;;;;;;8.88;3.58;;;;;;;;;;5006513;28;20052;-83
2023/08/14 02:38:12;;;;;;;7.47;3.45;;;;;;;;;;4991764;28;20050;-83
2023/08/14 02:40:45;;;;;;;7.20;2.90;;;;;;;;;;5007291;28;20492;-83
2023/08/14 02:43:17;;;;;;;7.28;3.45;;;;;;;;;;5007010;28;20061;-83
2023/08/14 02:45:53;;;;;;;8.50;3.22;;;;;;;;;;5007641;28;20069;-84
2023/08/14 02:48:23;;;;;;;6.70;3.35;;;;;;;;;;5007143;28;20056;-84
2023/08/14 02:50:57;;;;;;;8.50;3.38;;;;;;;;;;5008781;28;20064;-83
2023/08/14 02:53:29;;;;;;;9.57;3.72;;;;;;;;;;5008458;28;20045;-83
2023/08/14 02:56:00;;;;;;;12.45;3.80;;;;;;;;;;5007428;28;20475;-84
2023/08/14 02:58:30;;;;;;;7.40;3.53;;;;;;;;;;4991268;28;20057;-82
2023/08/14 03:01:04;;;;;;;13.50;4.03;;;;;;;;;;5006001;28;20511;-82
2023/08/14 03:03:34;;;;;;;;;;;;;;;;;;5006750;28;20073;-82
2023/08/14 03:06:05;;;;;;;;;;;;;;;;;;5008955;28;19944;-82
2023/08/14 03:08:35;;;;;;;7.15;3.03;;;;;;;;;;5007478;28;20343;-83
2023/08/14 03:11:07;;;;;;;7.85;3.30;;;;;;;;;;5007185;28;20046;-82
2023/08/14 03:13:40;;;;;;;8.70;3.15;;;;;;;;;;5008201;28;20046;-83
2023/08/14 03:16:10;;;;;;;8.25;2.97;;;;;;;;;;5005298;28;20053;-82
2023/08/14 03:18:41;;;;;;;9.90;3.90;;;;;;;;;;4989365;28;20042;-82
2023/08/14 03:21:13;;;;;;;7.45;3.20;;;;;;;;;;5005401;28;20045;-82
2023/08/14 03:23:48;;;;;;;9.93;3.38;;;;;;;;;;5005157;28;20046;-82
2023/08/14 03:26:19;;;;;;;6.60;3.00;;;;;;;;;;5006045;28;20054;-82
2023/08/14 03:28:50;;;;;;;6.47;3.15;;;;;;;;;;5009623;28;20069;-83
2023/08/14 03:31:21;;;;;;;8.27;3.15;;;;;;;;;;5004187;28;20046;-83
2023/08/14 03:33:54;;;;;;;9.43;3.40;;;;;;;;;;5087278;28;20058;-81
2023/08/14 03:36:26;;;;;;;10.05;3.47;;;;;;;;;;5009451;28;20041;-81
2023/08/14 03:38:58;;;;;;;10.05;3.03;;;;;;;;;;5012556;28;20053;-82
2023/08/14 03:41:32;;;;;;;6.97;3.60;;;;;;;;;;5023584;28;20496;-80
2023/08/14 03:44:07;;;;;;;7.78;3.08;;;;;;;;;;5004421;28;20045;-82
2023/08/14 03:46:39;;;;;;;8.30;3.25;;;;;;;;;;5008149;28;20054;-82
2023/08/14 03:49:09;;;;;;;7.03;3.33;;;;;;;;;;5012941;28;20492;-82
2023/08/14 03:51:43;;;;;;;8.25;2.95;;;;;;;;;;5013648;28;20050;-82
2023/08/14 03:54:15;;;;;;;8.27;3.17;;;;;;;;;;4997812;28;20057;-82
2023/08/14 03:56:47;;;;;;;7.53;3.05;;;;;;;;;;5013059;28;20376;-82
2023/08/14 03:59:17;;;;;;;14.25;3.20;;;;;;;;;;5013201;28;20050;-82
2023/08/14 04:01:49;;;;;;;7.13;2.80;;;;;;;;;;5013733;28;20061;-82
2023/08/14 04:04:21;;;;;;;8.40;3.20;;;;;;;;;;5012848;28;20050;-82
2023/08/14 04:06:52;;;;;;;6.80;2.88;;;;;;;;;;5011921;28;20050;-82
2023/08/14 04:09:22;;;;;;;7.88;2.95;;;;;;;;;;5012832;28;20057;-83
2023/08/14 04:11:53;;;;;;;6.20;2.88;;;;;;;;;;4995477;28;20057;-82
2023/08/14 04:14:25;;;;;;;9.07;3.08;;;;;;;;;;5013528;28;20408;-83
2023/08/14 04:16:56;;;;;;;7.60;2.95;;;;;;;;;;4995024;28;20061;-84
2023/08/14 04:19:27;;;;;;;11.40;2.90;;;;;;;;;;5012816;28;20049;-82
2023/08/14 04:22:00;;;;;;;6.82;2.63;;;;;;;;;;5011322;28;20053;-81
2023/08/14 04:24:32;;;;;;;11.90;2.78;;;;;;;;;;5012579;28;20046;-82
2023/08/14 04:27:03;;;;;;;6.20;2.75;;;;;;;;;;5012886;28;20053;-83
2023/08/14 04:29:33;;;;;;;12.38;3.20;;;;;;;;;;4996827;28;20057;-82
2023/08/14 04:32:03;;;;;;;6.43;2.92;;;;;;;;;;5012723;28;20064;-82
2023/08/14 04:34:36;;;;;;;7.70;3.08;;;;;;;;;;5012499;28;20460;-82
2023/08/14 04:37:10;;;;;;;8.18;2.72;;;;;;;;;;5012338;28;20053;-83
2023/08/14 04:39:41;;;;;;;6.90;3.03;;;;;;;;;;4994857;28;20060;-82
2023/08/14 04:42:12;;;;;;;8.65;3.20;;;;;;;;;;5013203;28;20068;-81
2023/08/14 04:44:45;;;;;;;8.82;3.33;;;;;;;;;;5012086;28;20061;-81
2023/08/14 04:47:17;;;;;;;8.43;3.05;;;;;;;;;;5012541;28;20046;-82
2023/08/14 04:49:51;;;;;;;7.88;2.95;;;;;;;;;;5012121;28;20065;-82
2023/08/14 04:52:22;;;;;;;6.55;2.90;;;;;;;;;;5010353;28;20050;-82
2023/08/14 04:54:57;;;;;;;8.73;3.30;;;;;;;;;;5012313;28;20388;-82
2023/08/14 04:57:33;;;;;;;7.30;2.90;;;;;;;;;;5012024;28;20054;-83
2023/08/14 05:00:09;;;;;;;7.70;2.65;;;;;;;;;;5009559;28;20050;-82
2023/08/14 05:02:42;;;;;;;11.63;2.85;;;;;;;;;;5011905;28;20046;-83
2023/08/14 05:05:15;;;;;;;10.15;2.50;;;;;;;;;;5010655;28;20054;-81
2023/08/14 05:07:47;;;;;;;6.90;2.70;;;;;;;;;;5011796;28;20054;-81
2023/08/14 05:10:19;;;;;;;6.80;2.50;;;;;;;;;;5012578;28;20057;-82
2023/08/14 05:12:49;;;;;;;6.18;2.38;;;;;;;;;;5011949;28;20520;-82
2023/08/14 05:15:19;;;;;;;6.68;2.75;;;;;;;;;;4994548;28;20054;-81
2023/08/14 05:17:54;;;;;;;10.23;3.20;;;;;;;;;;4994790;28;20515;-82
2023/08/14 05:20:24;;;;;;;11.57;3.75;;;;;;;;;;5012270;28;20074;-82
2023/08/14 05:22:56;;;;;;;7.93;2.95;;;;;;;;;;4994409;28;20050;-81
2023/08/14 05:25:28;;;;;;;7.63;2.83;;;;;;;;;;5010689;28;20038;-82
2023/08/14 05:28:01;;;;;;;;;;;;;;;;;;5013704;28;20073;-83
2023/08/14 05:30:33;;;;;;;8.60;2.70;;;;;;;;;;5011524;28;19921;-82
2023/08/14 05:33:05;;;;;;;9.73;2.22;;;;;;;;;;5011804;28;20049;-84
2023/08/14 05:35:35;;;;;;;8.75;2.55;;;;;;;;;;5011389;28;20057;-85
2023/08/14 05:38:06;;;;;;;9.40;2.65;;;;;;;;;;5011973;28;20042;-83
2023/08/14 05:40:36;;;;;;;6.68;2.58;;;;;;;;;;5012958;28;20058;-81
2023/08/14 05:43:12;;;;;;;5.88;2.58;;;;;;;;;;5011552;28;20053;-82
2023/08/14 05:45:45;;;;;;;5.38;2.28;;;;;;;;;;5011471;28;20046;-81
2023/08/14 05:48:17;;;;;;;6.55;2.45;;;;;;;;;;5012677;28;20050;-81
2023/08/14 05:50:55;;;;;;;7.18;2.83;;;;;;;;;;5010994;28;20174;-81
2023/08/14 05:53:26;;;;;;;;;;;;;;;;;;5010898;28;20042;-81
2023/08/14 05:55:56;;;;;;;5.85;2.55;;;;;;;;;;5011411;28;19929;-81
2023/08/14 05:58:30;;;;;;;5.65;2.42;;;;;;;;;;4994418;28;20050;-81
2023/08/14 06:01:01;;;;;;;6.43;2.58;;;;;;;;;;5009823;28;20073;-81
2023/08/14 06:03:32;;;;;;;7.38;2.50;;;;;;;;;;5010178;28;20388;-81
2023/08/14 06:06:13;;;;;;;8.68;2.30;;;;;;;;;;5011140;28;20049;-81
2023/08/14 06:08:44;;;;;;;5.88;2.33;;;;;;;;;;5010851;28;20056;-82
2023/08/14 06:11:19;;;;;;;7.00;2.63;;;;;;;;;;5011443;28;20046;-82
2023/08/14 06:13:50;;;;;;;12.50;2.92;;;;;;;;;;5011530;28;20042;-81
2023/08/14 06:16:21;;;;;;;6.78;2.92;;;;;;;;;;5010949;28;20046;-81
2023/08/14 06:18:52;;;;;;;8.13;3.38;;;;;;;;;;5010914;28;20054;-83
2023/08/14 06:21:25;;;;;;;8.35;2.85;;;;;;;;;;5011444;28;20042;-81
2023/08/14 06:23:55;;;;;;;8.27;2.75;;;;;;;;;;5011518;28;20076;-81
2023/08/14 06:26:26;;;;;;;6.65;2.55;;;;;;;;;;5010014;28;20046;-80
2023/08/14 06:29:03;;;;;;;7.63;2.42;;;;;;;;;;5011255;28;20141;-81
2023/08/14 06:31:34;;;;;;;7.60;2.33;;;;;;;;;;4995401;28;20064;-81
2023/08/14 06:34:07;;;;;;;6.18;2.72;;;;;;;;;;5009244;28;20401;-81
2023/08/14 06:36:38;;;;;;;6.13;2.85;;;;;;;;;;5010430;28;20053;-82
2023/08/14 06:39:09;;;;;;;5.68;2.15;;;;;;;;;;5010798;28;20050;-82
2023/08/14 06:41:43;;;;;;;7.68;2.67;;;;;;;;;;5010722;28;20050;-81
2023/08/14 06:44:16;;;;;;;6.07;2.83;;;;;;;;;;5009277;28;20515;-83
2023/08/14 06:46:47;;;;;;;7.70;2.80;;;;;;;;;;5009898;28;20045;-82
2023/08/14 06:49:20;;;;;;;7.03;2.85;;;;;;;;;;5010731;28;20053;-83
2023/08/14 06:51:52;;;;;;;5.75;2.60;;;;;;;;;;4995218;28;20072;-82
2023/08/14 06:54:23;;;;;;;5.22;2.30;;;;;;;;;;5010645;28;20411;-83
2023/08/14 06:56:53;;;;;;;5.45;2.70;;;;;;;;;;5010482;28;20050;-83
2023/08/14 06:59:23;;;;;;;4.93;2.15;;;;;;;;;;5010816;28;20061;-84
2023/08/14 07:01:54;;;;;;;7.03;2.13;;;;;;;;;;5011787;28;20054;-83
2023/08/14 07:04:28;;;;;;;7.38;2.35;;;;;;;;;;5009354;28;20053;-82
2023/08/14 07:06:58;;;;;;;5.68;2.17;;;;;;;;;;5010685;28;20044;-83
2023/08/14 07:09:28;;;;;;;7.10;2.60;;;;;;;;;;5009504;28;20042;-84
2023/08/14 07:11:58;;;;;;;7.90;2.45;;;;;;;;;;5010743;28;20050;-83
2023/08/14 07:14:31;;;;;;;7.53;2.45;;;;;;;;;;5009502;28;20046;-83
2023/08/14 07:17:04;;;;;;;5.63;2.42;;;;;;;;;;5009924;28;20042;-83
2023/08/14 07:19:35;;;;;;;5.95;2.85;;;;;;;;;;5010724;28;20053;-83
2023/08/14 07:22:05;;;;;;;6.72;2.65;;;;;;;;;;5009657;28;20057;-83
2023/08/14 07:24:38;;;;;;;4.93;2.35;;;;;;;;;;5014007;28;20049;-84
2023/08/14 07:27:13;;;;;;;7.00;2.63;;;;;;;;;;5012603;28;20056;-84
2023/08/14 07:29:44;;;;;;;5.28;2.22;;;;;;;;;;5013607;28;20045;-83
2023/08/14 07:32:14;;;;;;;6.50;2.60;;;;;;;;;;4997728;28;20437;-82
2023/08/14 07:34:48;;;;;;;8.35;3.00;;;;;;;;;;5013287;28;20053;-82
2023/08/14 07:37:20;;;;;;;5.18;2.40;;;;;;;;;;5013240;28;20049;-83
2023/08/14 07:39:51;;;;;;;6.03;2.67;;;;;;;;;;5012326;28;20143;-84
2023/08/14 07:42:21;;;;;;;6.07;2.38;;;;;;;;;;5013621;28;20511;-83
2023/08/14 07:44:52;;;;;;;5.53;2.67;;;;;;;;;;5013951;28;20072;-83
2023/08/14 07:47:23;;;;;;;7.00;2.20;;;;;;;;;;5012319;28;20053;-84
2023/08/14 07:49:55;;;;;;;6.05;2.42;;;;;;;;;;5015423;28;20058;-83
2023/08/14 07:52:30;;;;;;;6.80;3.60;;;;;;;;;;5013175;28;20057;-82
2023/08/14 07:55:01;;;;;;;8.00;3.03;;;;;;;;;;5013476;28;20050;-85
2023/08/14 07:57:33;;;;;;;6.20;2.70;;;;;;;;;;4996400;28;20053;-82
2023/08/14 08:00:09;;;;;;;6.97;2.85;;;;;;;;;;5010790;28;20416;-83
2023/08/14 08:02:40;;;;;;;8.60;2.53;;;;;;;;;;5013293;28;20054;-82
2023/08/14 08:05:10;;;;;;;7.40;2.95;;;;;;;;;;5013094;28;20049;-83
2023/08/14 08:07:45;;;;;;;9.73;2.80;;;;;;;;;;5013633;28;20046;-82
2023/08/14 08:10:16;;;;;;;4.68;2.60;;;;;;;;;;5013011;28;20054;-82
2023/08/14 08:12:48;;;;;;;5.85;2.55;;;;;;;;;;5010380;28;20416;-83
2023/08/14 08:15:22;;;;;;;6.07;2.92;;;;;;;;;;5012837;28;20507;-82
2023/08/14 08:17:52;;;;;;;5.15;2.60;;;;;;;;;;5014394;28;20060;-83
2023/08/14 08:20:27;;;;;;;7.32;3.28;;;;;;;;;;5013177;28;20038;-82
2023/08/14 08:22:59;;;;;;;6.10;2.65;;;;;;;;;;5013338;28;20364;-83
2023/08/14 08:25:29;;;;;;;10.13;3.22;;;;;;;;;;5011586;28;20050;-83
2023/08/14 08:28:03;;;;;;;8.80;3.13;;;;;;;;;;5012659;28;20054;-83
2023/08/14 08:30:34;;;;;;;7.28;3.33;;;;;;;;;;5013279;28;20061;-83
2023/08/14 08:33:05;;;;;;;7.93;3.17;;;;;;;;;;5013015;28;20045;-82
2023/08/14 08:35:37;;;;;;;6.72;3.10;;;;;;;;;;5011693;28;20046;-83
2023/08/14 08:38:08;;;;;;;8.30;3.85;;;;;;;;;;5012499;28;20436;-83
2023/08/14 08:40:45;;;;;;;7.70;2.88;;;;;;;;;;5010372;28;20506;-82
2023/08/14 08:43:19;;;;;;;8.35;3.72;;;;;;;;;;5011390;28;20042;-82
2023/08/14 08:45:52;;;;;;;8.35;3.40;;;;;;;;;;5011249;28;20057;-82
2023/08/14 08:48:29;;;;;;;8.05;3.17;;;;;;;;;;5012829;28;20080;-84
2023/08/14 08:51:01;;;;;;;6.60;3.15;;;;;;;;;;5012160;28;20054;-84
2023/08/14 08:53:35;;;;;;;7.18;2.70;;;;;;;;;;4996940;28;20057;-82
2023/08/14 08:56:06;;;;;;;6.82;2.80;;;;;;;;;;5012492;28;20045;-83
2023/08/14 08:58:37;;;;;;;7.38;3.00;;;;;;;;;;5011643;28;20416;-83
2023/08/14 09:01:10;;;;;;;6.72;3.15;;;;;;;;;;5011929;28;20049;-82
2023/08/14 09:03:42;;;;;;;6.93;2.78;;;;;;;;;;5012286;28;20058;-84
2023/08/14 09:06:14;;;;;;;9.32;3.35;;;;;;;;;;5012598;28;20053;-82
2023/08/14 09:08:46;;;;;;;8.68;3.00;;;;;;;;;;5012077;28;20144;-82
2023/08/14 09:11:17;;;;;;;;;;;;;;;;;;5012696;28;20046;-83
2023/08/14 09:13:48;;;;;;;8.98;2.95;;;;;;;;;;4996207;28;19928;-82
2023/08/14 09:16:18;;;;;;;6.22;3.10;;;;;;;;;;5011815;28;20480;-82
2023/08/14 09:18:52;;;;;;;5.32;2.60;;;;;;;;;;5012154;28;20054;-82
2023/08/14 09:21:25;;;;;;;5.45;2.72;;;;;;;;;;5011778;28;20122;-83
2023/08/14 09:23:59;;;;;;;7.30;3.00;;;;;;;;;;5011968;28;20057;-83
2023/08/14 09:26:29;;;;;;;5.93;3.00;;;;;;;;;;5012704;28;20392;-83
2023/08/14 09:29:01;;;;;;;8.77;3.03;;;;;;;;;;5010630;28;20050;-83
2023/08/14 09:31:34;;;;;;;5.80;2.88;;;;;;;;;;5034745;28;20546;-83
2023/08/14 09:34:05;;;;;;;9.00;3.55;;;;;;;;;;5056201;28;20042;-83
2023/08/14 09:36:35;;;;;;;7.47;3.08;;;;;;;;;;5050895;28;20506;-84
2023/08/14 09:39:06;;;;;;;7.47;3.72;;;;;;;;;;5015301;28;20396;-84
2023/08/14 09:41:45;;;;;;;12.20;6.88;;;;;;;;;;5089491;28;20049;-82
2023/08/14 09:44:35;;;;;;;12.85;6.07;;;;;;;;;;5063874;28;20051;-83
2023/08/14 09:47:06;;;;;;;11.38;5.43;;;;;;;;;;5025600;28;20049;-83
2023/08/14 09:49:40;;;;;;;11.73;5.28;;;;;;;;;;5011734;28;20485;-83
2023/08/14 09:52:20;;;;;;;9.18;4.60;;;;;;;;;;5011248;28;20057;-83
2023/08/14 09:54:54;;;;;;;9.70;4.03;;;;;;;;;;5010467;28;20045;-83
2023/08/14 09:57:31;;;;;;;;;;;;;;;;;;5010901;28;20045;-82
2023/08/14 10:00:06;;;;;;;14.93;6.25;;;;;;;;;;5011464;28;19997;-84
2023/08/14 10:02:41;;;;;;;13.57;5.97;;;;;;;;;;5011512;28;20145;-83
2023/08/14 10:05:12;;;;;;;10.95;5.65;;;;;;;;;;5011246;28;20041;-82
2023/08/14 10:07:44;;;;;;;11.55;5.47;;;;;;;;;;5009632;28;20057;-82
2023/08/14 10:10:21;;;;;;;12.82;5.07;;;;;;;;;;5011492;28;20488;-81
2023/08/14 10:13:04;;;;;;;10.40;4.95;;;;;;;;;;5011558;28;20489;-82
2023/08/14 10:15:45;;;;;;;11.15;4.43;;;;;;;;;;5010884;28;20130;-82
2023/08/14 10:18:22;;;;;;;8.13;4.57;;;;;;;;;;5010841;28;20514;-81
2023/08/14 10:20:58;;;;;;;8.75;4.10;;;;;;;;;;5010448;28;20147;-82
2023/08/14 10:23:32;;;;;;;9.15;4.30;;;;;;;;;;5010834;28;20468;-82
2023/08/14 10:26:07;;;;;;;10.90;4.03;;;;;;;;;;5010988;28;20057;-82
2023/08/14 10:28:41;;;;;;;9.52;4.22;;;;;;;;;;5009764;28;20499;-83
2023/08/14 10:31:13;;;;;;;8.07;3.97;;;;;;;;;;4993270;28;20057;-82
2023/08/14 10:33:45;;;;;;;10.98;4.78;;;;;;;;;;5009538;28;20054;-82
2023/08/14 10:36:20;;;;;;;13.35;4.88;;;;;;;;;;5010659;28;20057;-82
2023/08/14 10:38:51;;;;;;;16.52;4.85;;;;;;;;;;5009560;28;20057;-82
2023/08/14 10:41:34;;;;;;;;;;;;;;;;;;5010143;28;20049;-82
2023/08/14 10:44:10;;;;;;;9.80;4.22;;;;;;;;;;5009626;28;20417;-81
2023/08/14 10:46:44;;;;;;;10.25;4.55;;;;;;;;;;5010299;28;20039;-82
2023/08/14 10:49:14;;;;;;;11.50;4.65;;;;;;;;;;5011219;28;20491;-81
2023/08/14 10:51:45;;;;;;;12.15;5.68;;;;;;;;;;5010563;28;20199;-81
2023/08/14 10:54:17;;;;;;;14.18;5.20;;;;;;;;;;5009927;28;20052;-82
2023/08/14 10:56:59;;;;;;;9.95;5.22;;;;;;;;;;5008878;28;20050;-80
2023/08/14 10:59:35;;;;;;;16.95;7.18;;;;;;;;;;5007966;28;20517;-81
2023/08/14 11:02:16;;;;;;;23.77;9.60;;;;;;;;;;5009978;28;20049;-81
2023/08/14 11:05:13;;;;;;;28.20;11.82;;;;;;;;;;5010157;28;20057;-81
2023/08/14 11:08:00;;;;;;;26.60;10.73;;;;;;;;;;5010577;28;20049;-82
2023/08/14 11:10:34;;;;;;;19.27;6.25;;;;;;;;;;5008542;28;20530;-83
2023/08/14 11:13:09;;;;;;;9.85;4.63;;;;;;;;;;5010394;28;20064;-81
2023/08/14 11:15:41;;;;;;;11.73;4.28;;;;;;;;;;5009851;28;20046;-81
2023/08/14 11:18:16;;;;;;;;;;;;;;;;;;5009271;28;20488;-82
2023/08/14 11:20:47;;;;;;;12.98;5.50;;;;;;;;;;5010345;28;19921;-83
2023/08/14 11:23:17;;;;;;;17.25;4.72;;;;;;;;;;5010631;28;20045;-81
2023/08/14 11:25:48;;;;;;;11.70;5.22;;;;;;;;;;5010451;28;20064;-82
2023/08/14 11:28:19;;;;;;;14.80;6.63;;;;;;;;;;5009036;28;20057;-82
2023/08/14 11:30:53;;;;;;;19.45;6.57;;;;;;;;;;5009932;28;20046;-82
2023/08/14 11:33:24;;;;;;;14.25;6.00;;;;;;;;;;5009606;28;20061;-82
2023/08/14 11:35:55;;;;;;;11.38;5.47;;;;;;;;;;5010153;28;20199;-82
2023/08/14 11:38:41;;;;;;;10.80;4.32;;;;;;;;;;5008345;28;20500;-83
2023/08/14 11:41:16;;;;;;;10.13;4.47;;;;;;;;;;5008821;28;20057;-83
2023/08/14 11:44:01;;;;;;;10.85;4.40;;;;;;;;;;4994456;28;20057;-82
2023/08/14 11:46:31;;;;;;;13.65;4.95;;;;;;;;;;5008151;28;20046;-84
2023/08/14 11:49:01;;;;;;;9.68;4.70;;;;;;;;;;5008755;28;20046;-83
2023/08/14 11:51:38;;;;;;;9.05;4.05;;;;;;;;;;5007740;28;20168;-82
2023/08/14 11:54:10;;;;;;;12.00;6.22;;;;;;;;;;5008077;28;20038;-82
2023/08/14 11:56:43;;;;;;;15.60;7.05;;;;;;;;;;5006611;28;20042;-82
2023/08/14 11:59:18;;;;;;;11.32;5.30;;;;;;;;;;5009132;28;20054;-83
2023/08/14 12:01:51;;;;;;;15.73;7.03;;;;;;;;;;5010206;28;20065;-82
2023/08/14 12:04:22;;;;;;;15.15;6.38;;;;;;;;;;5009498;28;20046;-82
2023/08/14 12:06:54;;;;;;;13.07;6.53;;;;;;;;;;5009887;28;20511;-82
2023/08/14 12:09:27;;;;;;;24.35;13.07;;;;;;;;;;5008122;28;20050;-82
2023/08/14 12:11:59;;;;;;;15.85;8.88;;;;;;;;;;5011840;28;20046;-81
2023/08/14 12:14:43;;;;;;;16.77;7.10;;;;;;;;;;5011214;28;20045;-82
2023/08/14 12:17:18;;;;;;;16.10;7.18;;;;;;;;;;5011794;28;20438;-81
2023/08/14 12:19:59;;;;;;;13.38;5.95;;;;;;;;;;4994452;28;20123;-82
2023/08/14 12:22:34;;;;;;;13.00;6.28;;;;;;;;;;5012813;28;20053;-80
2023/08/14 12:25:09;;;;;;;14.50;6.30;;;;;;;;;;5009677;28;20038;-79
2023/08/14 12:27:40;;;;;;;13.57;7.32;;;;;;;;;;5011701;28;20038;-79
2023/08/14 12:30:11;;;;;;;12.63;6.35;;;;;;;;;;5012103;28;20053;-79
2023/08/14 12:32:49;;;;;;;15.18;7.07;;;;;;;;;;5011699;28;20384;-81
2023/08/14 12:35:20;;;;;;;16.75;7.97;;;;;;;;;;5011597;28;20050;-80
2023/08/14 12:37:52;;;;;;;15.55;6.80;;;;;;;;;;5011491;28;20050;-80
2023/08/14 12:40:22;;;;;;;10.30;5.78;;;;;;;;;;5010389;28;20046;-79
2023/08/14 12:42:56;;;;;;;13.63;6.45;;;;;;;;;;5010420;28;20053;-81
2023/08/14 12:45:28;;;;;;;12.60;7.35;;;;;;;;;;5009221;28;20155;-80
2023/08/14 12:48:01;;;;;;;16.20;7.72;;;;;;;;;;5010436;28;20055;-81
2023/08/14 12:50:32;;;;;;;14.35;7.25;;;;;;;;;;5011557;28;20396;-82
2023/08/14 12:53:05;;;;;;;15.40;7.25;;;;;;;;;;5010584;28;20053;-80
2023/08/14 12:55:37;;;;;;;12.65;6.32;;;;;;;;;;5011227;28;20041;-78
2023/08/14 12:58:07;;;;;;;;;;;;;;;;;;5012022;28;20530;-78
2023/08/14 13:00:44;;;;;;;12.80;6.72;;;;;;;;;;5010482;28;19921;-81
2023/08/14 13:03:15;;;;;;;10.63;5.32;;;;;;;;;;5011121;28;20042;-80
2023/08/14 13:05:47;;;;;;;23.45;12.52;;;;;;;;;;5010244;28;20046;-80
2023/08/14 13:08:18;;;;;;;14.82;8.07;;;;;;;;;;5011861;28;20042;-81
2023/08/14 13:10:48;;;;;;;30.75;13.25;;;;;;;;;;5011471;28;20130;-79
2023/08/14 13:13:23;;;;;;;60.47;25.45;;;;;;;;;;5010811;28;20038;-81
2023/08/14 13:15:58;;;;;;;14.77;7.30;;;;;;;;;;5010307;28;20053;-81
2023/08/14 13:18:30;;;;;;;17.67;8.60;;;;;;;;;;5010936;28;20045;-80
2023/08/14 13:21:01;;;;;;;17.95;8.43;;;;;;;;;;5009741;28;20059;-83
2023/08/14 13:23:34;;;;;;;14.82;8.07;;;;;;;;;;5011583;28;20045;-81
2023/08/14 13:26:06;;;;;;;14.48;7.43;;;;;;;;;;5011518;28;20034;-80
2023/08/14 13:28:37;;;;;;;15.48;6.70;;;;;;;;;;5010968;28;20046;-81
2023/08/14 13:31:08;;;;;;;15.45;6.97;;;;;;;;;;5010081;28;20519;-80
2023/08/14 13:33:42;;;;;;;13.65;7.15;;;;;;;;;;5010409;28;20049;-82
2023/08/14 13:36:15;;;;;;;12.02;6.65;;;;;;;;;;5012247;28;20403;-83
2023/08/14 13:38:48;;;;;;;20.38;7.25;;;;;;;;;;5010695;28;20058;-81
2023/08/14 13:41:18;;;;;;;10.18;5.28;;;;;;;;;;5011181;28;20464;-82
2023/08/14 13:43:51;;;;;;;9.60;4.50;;;;;;;;;;4994392;28;20054;-82
2023/08/14 13:46:22;;;;;;;12.05;4.93;;;;;;;;;;5012164;28;20058;-81
2023/08/14 13:48:56;;;;;;;10.27;4.47;;;;;;;;;;5006259;28;20061;-82
2023/08/14 13:51:26;;;;;;;11.40;5.75;;;;;;;;;;5010573;28;20050;-81
2023/08/14 13:53:58;;;;;;;13.25;5.00;;;;;;;;;;5011020;28;20054;-80
2023/08/14 13:56:29;;;;;;;10.65;5.43;;;;;;;;;;5010512;28;20049;-81
2023/08/14 13:58:59;;;;;;;20.02;9.70;;;;;;;;;;5010293;28;20038;-81
2023/08/14 14:01:30;;;;;;;13.20;5.85;;;;;;;;;;5012114;28;20046;-81
2023/08/14 14:04:00;;;;;;;14.60;6.90;;;;;;;;;;4995605;28;20514;-80
2023/08/14 14:06:37;;;;;;;11.25;5.65;;;;;;;;;;4997953;28;20354;-82
2023/08/14 14:09:08;;;;;;;12.63;5.65;;;;;;;;;;5012113;28;20404;-81
2023/08/14 14:11:42;;;;;;;13.15;4.82;;;;;;;;;;4991382;28;20065;-81
2023/08/14 14:14:15;;;;;;;11.18;4.68;;;;;;;;;;4991154;28;20062;-80
2023/08/14 14:16:55;;;;;;;9.73;4.95;;;;;;;;;;4993809;28;20050;-80
2023/08/14 14:19:27;;;;;;;8.95;3.97;;;;;;;;;;4994576;28;20054;-83
2023/08/14 14:21:59;;;;;;;9.35;3.90;;;;;;;;;;4994301;28;20358;-80
2023/08/14 14:24:32;;;;;;;8.82;3.83;;;;;;;;;;4991846;28;20053;-81
2023/08/14 14:27:07;;;;;;;9.30;4.60;;;;;;;;;;4991533;28;20046;-81
2023/08/14 14:29:39;;;;;;;9.70;4.82;;;;;;;;;;4992387;28;20038;-81
2023/08/14 14:32:11;;;;;;;10.43;5.45;;;;;;;;;;4994840;28;20050;-82
2023/08/14 14:34:44;;;;;;;15.63;6.80;;;;;;;;;;5011288;28;20042;-81
2023/08/14 14:37:15;;;;;;;11.60;6.10;;;;;;;;;;5011481;28;20045;-81
2023/08/14 14:39:47;;;;;;;11.55;5.35;;;;;;;;;;5008833;28;20526;-79
2023/08/14 14:42:19;;;;;;;;;;;;;;;;;;5010700;28;20042;-80
2023/08/14 14:44:54;;;;;;;11.02;5.65;;;;;;;;;;5097512;27;19929;-81
2023/08/14 14:47:27;;;;;;;12.32;5.90;;;;;;;;;;4992623;28;20057;-81
2023/08/14 14:49:58;;;;;;;11.93;5.72;;;;;;;;;;5012768;28;20058;-82
2023/08/14 14:52:28;;;;;;;14.70;5.50;;;;;;;;;;5010056;28;20050;-82
2023/08/14 14:54:58;;;;;;;12.18;6.38;;;;;;;;;;5008649;28;20053;-81
2023/08/14 14:57:29;;;;;;;13.02;6.22;;;;;;;;;;5009020;28;20086;-83
2023/08/14 15:00:02;;;;;;;15.65;7.40;;;;;;;;;;5008399;28;20050;-83
2023/08/14 15:02:34;;;;;;;13.20;6.47;;;;;;;;;;5009623;28;20053;-82
2023/08/14 15:05:04;;;;;;;12.73;6.60;;;;;;;;;;5008944;28;20042;-82
2023/08/14 15:07:44;;;;;;;;;;;;;;;;;;5007826;28;20046;-81
2023/08/14 15:10:16;;;;;;;16.30;6.57;;;;;;;;;;5009258;28;19921;-81
2023/08/14 15:12:48;;;;;;;13.82;6.78;;;;;;;;;;5009942;28;20496;-81
2023/08/14 15:15:19;;;;;;;9.10;5.00;;;;;;;;;;5010412;28;20049;-81